Time;durP1;ratioP1;P1;durP2;ratioP2;P2;SDS_P1;SDS_P2;PMS_P1;PMS_P2;Temp;Humidity;BMP_temperature;BMP_pressure;BME280_temperature;BME280_humidity;BME280_pressure;Samples;Min_cycle;Max_cycle;Signal;HPM_P1;HPM_P2
2021/01/22 00:00:07;;;;;;;6.03;3.83;;;9.20;98.00;;;7.58;100.00;98371.34;4966934;28;100091;-60
2021/01/22 00:02:34;;;;;;;4.40;3.87;;;9.20;97.90;;;7.72;100.00;98367.00;4966485;28;100992;-60
2021/01/22 00:05:00;;;;;;;4.77;3.87;;;9.20;98.20;;;7.67;100.00;98354.25;4966521;28;100149;-59
2021/01/22 00:07:27;;;;;;;5.03;4.00;;;9.10;98.20;;;7.73;100.00;98350.84;4965763;27;101578;-59
2021/01/22 00:09:53;;;;;;;4.70;3.57;;;9.30;98.30;;;7.75;100.00;98332.03;4965838;28;100000;-60
2021/01/22 00:12:20;;;;;;;4.77;3.30;;;9.20;98.20;;;7.75;100.00;98338.19;4965882;28;100824;-62
2021/01/22 00:14:47;;;;;;;4.33;3.47;;;9.20;98.20;;;7.78;100.00;98339.66;4965854;28;100083;-61
2021/01/22 00:17:14;;;;;;;4.87;3.73;;;9.40;98.30;;;7.77;100.00;98346.81;4966521;28;100268;-62
2021/01/22 00:19:42;;;;;;;4.47;3.67;;;9.30;98.40;;;7.77;100.00;98346.00;4966795;28;99886;-62
2021/01/22 00:22:08;;;;;;;4.80;3.47;;;9.20;98.20;;;7.77;100.00;98338.81;4965870;27;100928;-62
2021/01/22 00:24:35;;;;;;;5.73;3.90;;;9.10;98.30;;;7.86;100.00;98340.34;4966144;28;100587;-61
2021/01/22 00:27:01;;;;;;;5.50;3.83;;;9.40;98.30;;;7.87;100.00;98341.19;4965392;28;100044;-61
2021/01/22 00:29:28;;;;;;;5.03;3.50;;;9.20;98.20;;;7.86;100.00;98340.34;4980739;28;100015;-60
2021/01/22 00:31:54;;;;;;;4.20;3.50;;;9.40;98.10;;;7.84;100.00;98339.72;4964963;28;100889;-61
2021/01/22 00:34:21;;;;;;;5.10;3.37;;;9.20;98.10;;;7.81;100.00;98336.59;4965692;28;100786;-61
2021/01/22 00:36:49;;;;;;;4.47;2.70;;;9.30;98.10;;;7.80;100.00;98341.09;4965716;28;100177;-61
2021/01/22 00:39:15;;;;;;;4.50;3.50;;;9.50;98.10;;;7.81;100.00;98344.59;4966829;28;100089;-59
2021/01/22 00:41:42;;;;;;;6.13;3.57;;;9.30;98.00;;;7.80;100.00;98340.25;4966635;28;101413;-61
2021/01/22 00:44:08;;;;;;;4.13;3.60;;;9.40;98.10;;;7.85;100.00;98336.03;4979266;28;101317;-61
2021/01/22 00:46:35;;;;;;;4.63;3.00;;;9.20;97.80;;;7.89;100.00;98331.16;4965607;28;100231;-61
2021/01/22 00:49:01;;;;;;;4.87;3.30;;;9.40;97.90;;;7.96;100.00;98309.94;4966174;28;100390;-61
2021/01/22 00:51:31;;;;;;;6.00;3.67;;;9.50;97.50;;;7.96;100.00;98308.09;4979738;27;102186;-61
2021/01/22 00:54:00;;;;;;;3.37;2.90;;;9.30;97.50;;;8.04;100.00;98304.47;4965059;28;100528;-60
2021/01/22 00:56:42;;;;;;;5.00;3.00;;;9.40;96.20;;;8.08;100.00;98300.41;4979775;28;100103;-61
2021/01/22 00:59:08;;;;;;;4.50;3.00;;;9.30;96.70;;;8.12;100.00;98296.38;4965900;28;100058;-61
2021/01/22 01:01:36;;;;;;;4.57;3.33;;;9.40;96.20;;;8.08;100.00;98287.09;4979847;28;102908;-61
2021/01/22 01:04:05;;;;;;;4.30;3.30;;;9.60;95.80;;;8.07;100.00;98285.44;4979477;28;102342;-61
2021/01/22 01:06:45;;;;;;;5.43;3.70;;;9.50;95.00;;;8.04;100.00;98276.00;4979644;27;100103;-60
2021/01/22 01:09:14;;;;;;;7.07;3.80;;;10.30;94.90;;;8.00;100.00;98279.25;4979545;28;100541;-61
2021/01/22 01:11:56;;;;;;;4.57;3.43;;;9.80;94.40;;;7.94;100.00;98281.66;4979848;27;100251;-61
2021/01/22 01:14:37;;;;;;;5.20;4.27;;;9.40;94.10;;;7.90;100.00;98288.38;4979682;27;100131;-61
2021/01/22 01:17:05;;;;;;;4.77;3.70;;;9.40;93.50;;;7.86;100.00;98296.94;4979782;28;100492;-61
2021/01/22 01:19:31;;;;;;;4.40;3.67;;;10.40;93.40;;;7.75;100.00;98290.25;4965865;28;100488;-59
2021/01/22 01:21:58;;;;;;;7.83;5.00;;;9.40;93.00;;;7.75;100.00;98284.13;4963923;28;101796;-61
2021/01/22 01:24:25;;;;;;;8.13;5.47;;;9.40;92.50;;;7.57;100.00;98280.03;4965270;28;100636;-61
2021/01/22 01:26:51;;;;;;;6.97;4.87;;;10.20;93.10;;;7.54;100.00;98283.06;4965629;28;99987;-61
2021/01/22 01:29:17;;;;;;;8.90;5.60;;;9.30;92.90;;;7.56;100.00;98269.56;4964559;28;100134;-61
2021/01/22 01:31:44;;;;;;;7.37;5.70;;;9.30;92.30;;;7.51;100.00;98264.81;4965067;28;100909;-60
2021/01/22 01:34:10;;;;;;;8.27;5.97;;;9.30;92.40;;;7.46;100.00;98263.72;4964974;28;101114;-60
2021/01/22 01:36:36;;;;;;;8.67;6.17;;;9.30;92.10;;;7.46;100.00;98263.72;4965569;28;100038;-61
2021/01/22 01:39:05;;;;;;;8.33;5.97;;;9.20;92.00;;;7.46;100.00;98266.38;4966008;28;99933;-61
2021/01/22 01:41:32;;;;;;;8.83;6.27;;;9.10;92.00;;;7.46;100.00;98266.38;4965020;28;100846;-61
2021/01/22 01:43:58;;;;;;;8.93;6.03;;;9.00;91.90;;;7.51;100.00;98245.38;4964313;28;101434;-61
2021/01/22 01:46:24;;;;;;;8.30;5.93;;;9.00;91.50;;;7.45;100.00;98252.25;4964548;28;99946;-61
2021/01/22 01:48:51;;;;;;;9.10;6.33;;;9.20;91.40;;;7.44;100.00;98247.13;4964632;28;99931;-61
2021/01/22 01:51:18;;;;;;;8.50;6.10;;;9.10;91.50;;;7.50;100.00;98241.06;4964117;28;101347;-61
2021/01/22 01:53:44;;;;;;;7.83;6.20;;;9.00;91.00;;;7.48;100.00;98243.06;4964968;28;101030;-60
2021/01/22 01:56:12;;;;;;;6.80;5.17;;;9.00;90.70;;;7.40;100.00;98252.00;4970804;28;100370;-60
2021/01/22 01:58:38;;;;;;;7.50;5.97;;;8.80;91.00;;;7.40;100.00;98251.19;4971542;28;100481;-60
2021/01/22 02:01:07;;;;;;;8.87;6.50;;;8.90;91.00;;;7.39;100.00;98252.19;4971059;28;101177;-61
2021/01/22 02:03:34;;;;;;;9.10;6.30;;;8.90;90.60;;;7.40;100.00;98237.88;4971732;28;101405;-61
2021/01/22 02:06:00;;;;;;;6.60;5.83;;;8.90;90.30;;;7.36;100.00;98240.09;4986564;28;100185;-60
2021/01/22 02:08:27;;;;;;;6.80;5.60;;;9.00;90.30;;;7.34;100.00;98246.59;4971210;28;100227;-59
2021/01/22 02:10:54;;;;;;;9.30;6.30;;;9.00;90.10;;;7.41;100.00;98234.22;4970630;28;101215;-60
2021/01/22 02:13:22;;;;;;;10.13;6.13;;;8.90;89.50;;;7.34;100.00;98227.97;4971528;28;100641;-62
2021/01/22 02:15:50;;;;;;;7.57;6.07;;;8.90;89.70;;;7.33;100.00;98219.16;4971194;28;100034;-61
2021/01/22 02:18:17;;;;;;;8.77;6.83;;;8.80;89.10;;;7.34;100.00;98226.13;4971342;28;100120;-61
2021/01/22 02:20:56;;;;;;;11.40;6.33;;;9.00;88.20;;;7.26;100.00;98217.47;4970734;28;101427;-62
2021/01/22 02:23:26;;;;;;;8.53;6.70;;;9.00;88.50;;;7.20;100.00;98227.00;4970917;28;101683;-62
2021/01/22 02:25:57;;;;;;;9.10;6.47;;;8.80;88.40;;;7.18;100.00;98226.34;4971311;28;100249;-61
2021/01/22 02:28:24;;;;;;;8.07;6.43;;;8.90;89.10;;;7.18;100.00;98215.72;4975295;28;99944;-60
2021/01/22 02:30:52;;;;;;;9.03;6.40;;;8.80;88.60;;;7.24;100.00;98214.97;4970585;28;101004;-60
2021/01/22 02:33:20;;;;;;;7.53;5.73;;;8.80;87.90;;;7.24;100.00;98212.31;4970769;28;100249;-61
2021/01/22 02:35:51;;;;;;;9.00;6.70;;;8.90;87.70;;;7.24;100.00;98206.16;4970373;28;100031;-62
2021/01/22 02:38:20;;;;;;;8.33;6.23;;;8.80;87.50;;;7.22;100.00;98211.69;4970923;28;100068;-61
2021/01/22 02:40:48;;;;;;;7.53;6.13;;;8.90;87.10;;;7.10;100.00;98210.50;4970762;28;101539;-61
2021/01/22 02:43:16;;;;;;;8.17;6.60;;;8.80;88.10;;;7.09;100.00;98206.19;4970626;28;101010;-60
2021/01/22 02:45:44;;;;;;;8.37;6.13;;;8.70;87.50;;;7.04;100.00;98204.13;4971053;28;100052;-62
2021/01/22 02:48:14;;;;;;;7.70;6.10;;;8.70;88.10;;;7.00;100.00;98191.38;4950925;28;99971;-62
2021/01/22 02:50:40;;;;;;;8.87;6.40;;;8.60;88.10;;;6.96;100.00;98198.88;4951301;28;100874;-61
2021/01/22 02:53:07;;;;;;;9.27;6.67;;;8.50;88.60;;;6.88;100.00;98199.00;4950939;28;101140;-61
2021/01/22 02:55:36;;;;;;;9.90;6.80;;;8.50;88.90;;;6.80;100.00;98196.41;4951343;28;100019;-61
2021/01/22 02:58:13;;;;;;;10.07;6.60;;;8.40;89.30;;;6.81;100.00;98198.91;4959748;28;99970;-61
2021/01/22 03:00:48;;;;;;;10.07;6.80;;;8.50;88.70;;;6.83;100.00;98198.72;4969966;28;100890;-60
2021/01/22 03:03:26;;;;;;;11.27;6.30;;;8.20;88.30;;;6.77;100.00;98192.31;4969278;28;101581;-60
2021/01/22 03:05:57;;;;;;;8.77;6.47;;;8.20;88.10;;;6.73;100.00;98188.38;4969389;28;100044;-61
2021/01/22 03:08:24;;;;;;;9.87;6.97;;;9.50;89.00;;;6.69;100.00;98189.75;4966463;28;99976;-59
2021/01/22 03:10:51;;;;;;;9.57;7.30;;;8.30;87.70;;;6.62;100.00;98188.84;4966378;28;101058;-59
2021/01/22 03:13:19;;;;;;;10.33;6.80;;;7.10;87.00;;;6.57;100.00;98193.03;4966719;28;100727;-60
2021/01/22 03:15:47;;;;;;;9.60;7.00;;;8.20;87.50;;;6.47;100.00;98188.00;4966934;28;100182;-61
2021/01/22 03:18:16;;;;;;;7.20;6.00;;;8.10;88.00;;;6.45;100.00;98180.22;4967700;28;100057;-61
2021/01/22 03:20:44;;;;;;;10.57;7.20;;;8.00;87.60;;;6.41;100.00;98176.31;4966465;28;101268;-60
2021/01/22 03:23:13;;;;;;;12.57;7.47;;;8.00;87.70;;;6.42;100.00;98167.34;4966323;28;100606;-59
2021/01/22 03:25:39;;;;;;;8.50;6.73;;;7.80;87.50;;;6.31;100.00;98165.09;4966595;28;100456;-62
2021/01/22 03:28:06;;;;;;;9.20;7.03;;;7.90;87.80;;;6.31;100.00;98151.81;4966775;28;100404;-61
2021/01/22 03:30:32;;;;;;;9.23;6.33;;;7.80;87.70;;;6.27;100.00;98153.22;4966736;28;101363;-60
2021/01/22 03:33:00;;;;;;;8.47;7.10;;;7.80;88.10;;;6.28;100.00;98141.59;4966140;28;101134;-61
2021/01/22 03:35:28;;;;;;;8.53;7.03;;;7.60;88.20;;;6.21;100.00;98140.66;4966373;28;100090;-60
2021/01/22 03:37:55;;;;;;;10.63;7.27;;;7.80;88.80;;;6.19;100.00;98139.19;4967277;28;100322;-61
2021/01/22 03:40:22;;;;;;;10.67;7.00;;;7.70;89.00;;;6.08;100.00;98138.63;4966637;28;100022;-61
2021/01/22 03:42:49;;;;;;;10.10;6.80;;;7.60;89.50;;;6.06;100.00;98134.50;4966851;28;100775;-59
2021/01/22 03:45:16;;;;;;;8.93;7.83;;;7.60;89.90;;;6.27;100.00;98126.66;4967054;28;100160;-60
2021/01/22 03:47:43;;;;;;;10.20;7.10;;;7.40;89.50;;;6.17;100.00;98126.13;4966184;28;100034;-61
2021/01/22 03:50:11;;;;;;;8.73;6.47;;;7.50;89.50;;;6.13;100.00;98135.44;4965840;28;101017;-60
2021/01/22 03:52:39;;;;;;;9.27;7.00;;;7.60;89.90;;;6.08;100.00;98129.84;4966463;28;101262;-61
2021/01/22 03:55:07;;;;;;;9.50;6.70;;;7.50;89.90;;;6.01;100.00;98123.63;4966948;28;99948;-59
2021/01/22 03:57:34;;;;;;;9.00;7.00;;;7.50;89.70;;;5.96;100.00;98120.66;4966760;28;99891;-61
2021/01/22 04:00:00;;;;;;;9.00;7.00;;;7.30;90.10;;;5.94;100.00;98131.47;4966317;28;100744;-61
2021/01/22 04:02:27;;;;;;;9.47;7.20;;;7.40;90.30;;;5.94;100.00;98138.59;4966760;28;101655;-61
2021/01/22 04:04:53;;;;;;;9.43;7.63;;;7.50;90.40;;;6.00;100.00;98132.59;4966980;28;100104;-60
2021/01/22 04:07:20;;;;;;;8.47;6.30;;;7.50;90.60;;;6.04;100.00;98132.06;4967538;28;100009;-61
2021/01/22 04:09:47;;;;;;;8.37;6.47;;;7.40;90.90;;;6.02;100.00;98127.94;4966121;28;100980;-59
2021/01/22 04:12:13;;;;;;;9.80;6.67;;;7.50;91.10;;;6.06;100.00;98123.88;4966222;28;101541;-61
2021/01/22 04:14:39;;;;;;;8.80;6.90;;;7.40;90.70;;;6.02;100.00;98123.44;4966443;28;100315;-61
2021/01/22 04:17:06;;;;;;;12.17;6.87;;;7.50;90.90;;;6.05;100.00;98120.44;4966738;28;100053;-61
2021/01/22 04:19:32;;;;;;;10.13;6.83;;;7.40;90.80;;;6.16;100.00;98097.09;4966014;28;101791;-60
2021/01/22 04:21:59;;;;;;;9.20;6.87;;;7.40;90.80;;;6.08;100.00;98105.94;4966108;28;101295;-59
2021/01/22 04:24:27;;;;;;;8.80;6.67;;;7.30;90.80;;;6.11;100.00;98111.72;4965656;28;100286;-61
2021/01/22 04:26:54;;;;;;;7.63;6.73;;;7.50;90.90;;;6.12;100.00;98105.41;4966221;28;99954;-61
2021/01/22 04:29:20;;;;;;;8.87;6.93;;;7.50;90.80;;;6.11;100.00;98101.09;4965810;28;101911;-61
2021/01/22 04:31:46;;;;;;;7.50;6.50;;;7.50;90.90;;;6.17;100.00;98098.72;4966439;28;101334;-61
2021/01/22 04:34:13;;;;;;;11.23;8.60;;;7.60;90.80;;;6.18;100.00;98089.75;4966045;27;100061;-61
2021/01/22 04:36:39;;;;;;;9.23;6.70;;;7.60;90.80;;;6.21;100.00;98100.00;4965812;28;100233;-61
2021/01/22 04:39:06;;;;;;;7.67;6.27;;;7.60;90.90;;;6.17;100.00;98096.09;4965050;28;101369;-60
2021/01/22 04:41:33;;;;;;;8.70;6.83;;;7.50;91.00;;;6.27;100.00;98084.16;4965515;28;100691;-60
2021/01/22 04:44:01;;;;;;;9.27;6.60;;;7.50;91.00;;;6.32;100.00;98079.09;4966135;28;100252;-61
2021/01/22 04:46:32;;;;;;;8.53;7.13;;;7.60;91.30;;;6.37;100.00;98063.44;4965774;28;100363;-62
2021/01/22 04:49:00;;;;;;;8.00;5.83;;;7.50;91.20;;;6.38;100.00;98059.78;4965301;27;100850;-61
2021/01/22 04:51:30;;;;;;;6.73;4.80;;;7.50;91.30;;;6.52;100.00;98057.28;4965285;28;101506;-61
2021/01/22 04:54:03;;;;;;;8.80;6.20;;;7.50;91.20;;;6.45;100.00;98044.75;4965981;28;99963;-61
2021/01/22 04:56:34;;;;;;;7.77;6.13;;;7.70;91.20;;;6.44;100.00;98023.66;4965358;28;100142;-60
2021/01/22 04:59:04;;;;;;;6.37;5.67;;;7.50;91.00;;;6.54;100.00;98020.75;4980056;28;102002;-62
2021/01/22 05:01:31;;;;;;;8.53;5.33;;;7.70;91.00;;;6.67;100.00;98034.16;4964883;28;100629;-61
2021/01/22 05:03:58;;;;;;;5.90;5.10;;;7.80;90.90;;;6.74;100.00;98035.06;4979855;28;100255;-61
2021/01/22 05:06:24;;;;;;;7.80;5.47;;;7.70;90.70;;;6.68;100.00;98030.47;4965971;28;100232;-61
2021/01/22 05:08:53;;;;;;;8.63;6.07;;;7.90;90.50;;;6.66;100.00;98024.56;4965164;28;101895;-61
2021/01/22 05:11:21;;;;;;;8.43;6.33;;;7.80;90.50;;;6.56;100.00;98024.81;4965338;28;101514;-63
2021/01/22 05:13:48;;;;;;;6.43;5.47;;;7.90;90.30;;;6.56;100.00;98037.28;4965454;28;100278;-60
2021/01/22 05:16:15;;;;;;;6.63;5.73;;;7.70;90.40;;;6.46;100.00;98040.25;4965232;28;100462;-60
2021/01/22 05:18:42;;;;;;;6.73;5.33;;;7.70;90.40;;;6.45;100.00;98028.81;4965210;28;101009;-60
2021/01/22 05:21:11;;;;;;;6.80;4.73;;;7.70;90.30;;;6.52;100.00;98026.25;4965308;28;100788;-60
2021/01/22 05:23:39;;;;;;;5.80;4.90;;;7.70;90.20;;;6.42;100.00;98042.47;4965773;28;100182;-62
2021/01/22 05:26:08;;;;;;;6.47;5.33;;;7.80;90.40;;;6.49;100.00;98047.84;4966694;28;100473;-62
2021/01/22 05:28:35;;;;;;;8.77;5.70;;;7.70;90.20;;;6.42;100.00;98045.13;4965208;28;101127;-60
2021/01/22 05:31:03;;;;;;;7.20;4.83;;;7.90;90.40;;;6.40;100.00;98048.97;4963766;28;100691;-61
2021/01/22 05:33:30;;;;;;;8.27;5.50;;;7.60;90.30;;;6.34;100.00;98042.56;4964480;28;100215;-62
2021/01/22 05:35:56;;;;;;;6.93;5.53;;;7.60;90.30;;;6.38;100.00;98030.56;4964754;27;100117;-61
2021/01/22 05:38:39;;;;;;;7.30;5.23;;;7.70;90.30;;;6.28;100.00;98021.25;4964394;28;100813;-61
2021/01/22 05:41:07;;;;;;;6.83;5.13;;;7.70;90.60;;;6.35;100.00;98014.19;4964545;28;100340;-62
2021/01/22 05:43:38;;;;;;;7.00;5.67;;;7.60;90.60;;;6.20;100.00;98011.53;4965027;28;100122;-61
2021/01/22 05:46:12;;;;;;;9.13;6.03;;;7.70;90.90;;;6.12;100.00;97996.53;4965776;28;100424;-61
2021/01/22 05:48:38;;;;;;;7.37;5.30;;;7.70;91.00;;;6.12;100.00;97995.72;4979498;28;102076;-61
2021/01/22 05:51:06;;;;;;;7.83;6.57;;;7.60;91.10;;;6.10;100.00;97998.56;4965190;28;100934;-61
2021/01/22 05:53:32;;;;;;;7.90;5.70;;;7.60;91.40;;;6.04;100.00;97988.69;4964908;27;100031;-62
2021/01/22 05:56:08;;;;;;;7.70;6.10;;;8.30;91.70;;;5.94;100.00;97990.78;4964737;28;99994;-60
2021/01/22 05:58:35;;;;;;;8.97;6.23;;;7.50;91.80;;;5.86;100.00;97985.56;4945424;28;100931;-60
2021/01/22 06:01:14;;;;;;;9.47;6.73;;;7.40;91.90;;;5.88;100.00;97996.84;4944282;28;101458;-60
2021/01/22 06:03:43;;;;;;;8.87;6.17;;;7.30;92.00;;;5.82;100.00;97988.75;4945065;28;100253;-61
2021/01/22 06:06:11;;;;;;;6.90;5.80;;;7.10;92.30;;;5.83;100.00;97993.88;4944949;28;100247;-61
2021/01/22 06:08:52;;;;;;;9.33;7.03;;;7.20;92.40;;;5.70;100.00;97989.22;4957121;28;102117;-61
2021/01/22 06:11:26;;;;;;;9.37;7.60;;;7.20;92.70;;;5.82;100.00;97984.25;4964189;28;100766;-61
2021/01/22 06:13:54;;;;;;;8.47;7.07;;;7.20;91.90;;;5.74;100.00;97984.38;4965157;28;100236;-62
2021/01/22 06:16:25;;;;;;;8.70;6.87;;;7.20;93.00;;;5.74;100.00;97984.38;4964380;28;100182;-62
2021/01/22 06:18:57;;;;;;;13.97;7.23;;;7.10;93.00;;;5.65;100.00;97996.91;4964127;28;100925;-62
2021/01/22 06:21:25;;;;;;;7.77;6.43;;;7.00;93.20;;;5.54;100.00;97993.91;4964038;28;101209;-60
2021/01/22 06:23:53;;;;;;;10.20;7.70;;;7.20;93.40;;;5.52;100.00;97994.06;4964297;28;100113;-61
2021/01/22 06:26:20;;;;;;;8.33;6.60;;;7.20;93.70;;;5.39;100.00;97992.03;4964367;28;100249;-62
2021/01/22 06:28:50;;;;;;;8.57;6.83;;;7.00;93.90;;;5.37;100.00;97988.75;4964133;28;101345;-63
2021/01/22 06:31:18;;;;;;;10.63;6.07;;;6.80;94.20;;;5.35;100.00;97990.75;4964439;28;100998;-62
2021/01/22 06:33:47;;;;;;;11.03;7.37;;;6.90;94.50;;;5.17;100.00;97997.41;4964762;28;100101;-62
2021/01/22 06:36:15;;;;;;;9.80;7.77;;;6.80;94.90;;;5.23;100.00;97994.03;4964863;28;100249;-63
2021/01/22 06:38:42;;;;;;;10.60;7.57;;;6.80;95.20;;;5.27;100.00;98000.63;4964752;28;100920;-60
2021/01/22 06:41:09;;;;;;;10.17;7.83;;;6.90;95.60;;;5.26;100.00;97998.97;4963877;28;100914;-61
2021/01/22 06:43:37;;;;;;;8.77;7.20;;;6.70;95.70;;;5.33;100.00;97998.06;4967507;28;100099;-62
2021/01/22 06:46:07;;;;;;;10.17;7.47;;;6.70;96.00;;;5.26;100.00;98004.28;4967783;28;100085;-62
2021/01/22 06:48:52;;;;;;;9.50;7.37;;;6.70;96.10;;;5.21;100.00;98011.94;4967446;28;100974;-62
2021/01/22 06:51:19;;;;;;;9.60;7.47;;;6.60;96.30;;;5.16;100.00;98012.50;4966449;28;100818;-60
2021/01/22 06:54:09;;;;;;;9.43;7.30;;;7.30;96.40;;;5.29;100.00;98019.84;4966916;28;100097;-61
2021/01/22 06:56:38;;;;;;;8.17;6.50;;;6.60;96.70;;;5.29;100.00;98012.69;4967673;28;100242;-61
2021/01/22 06:59:39;;;;;;;9.57;7.00;;;6.60;96.70;;;5.28;100.00;98015.53;4966600;28;101263;-61
2021/01/22 07:02:37;;;;;;;9.00;6.57;;;6.60;96.20;;;5.33;100.00;98019.28;4967356;28;101584;-61
2021/01/22 07:05:43;;;;;;;9.37;7.20;;;6.60;96.20;;;5.26;100.00;98017.53;4967127;28;100187;-61
2021/01/22 07:08:11;;;;;;;10.70;7.70;;;6.60;96.20;;;5.30;100.00;98011.69;4967469;28;100157;-61
2021/01/22 07:11:02;;;;;;;9.20;8.00;;;6.60;97.00;;;5.19;100.00;98014.78;4966076;28;101236;-61
2021/01/22 07:13:34;;;;;;;9.40;6.30;;;6.60;97.30;;;5.36;100.00;98021.56;4967461;28;100330;-61
2021/01/22 07:16:01;;;;;;;11.17;7.77;;;6.60;97.40;;;5.36;100.00;98015.44;4967135;28;99876;-60
2021/01/22 07:18:28;;;;;;;8.87;6.90;;;6.60;97.50;;;5.44;100.00;98003.94;4967207;28;100117;-61
2021/01/22 07:21:25;;;;;;;9.33;7.83;;;6.60;97.50;;;5.59;100.00;98015.38;4964361;28;102983;-61
2021/01/22 07:23:52;;;;;;;9.67;7.13;;;6.70;96.80;;;5.65;100.00;98007.53;4966846;28;100460;-60
2021/01/22 07:26:18;;;;;;;8.80;6.43;;;6.80;97.40;;;5.75;100.00;98009.91;4966833;28;100226;-60
2021/01/22 07:28:52;;;;;;;9.07;6.60;;;6.90;97.30;;;5.89;100.00;98016.25;4967754;28;100052;-61
2021/01/22 07:31:50;;;;;;;10.03;7.00;;;6.40;96.70;;;6.00;100.00;97992.72;4966353;28;100466;-61
2021/01/22 07:34:43;;;;;;;8.17;6.80;;;7.20;95.40;;;6.11;100.00;98005.53;4966469;28;100464;-61
2021/01/22 07:37:14;;;;;;;8.50;6.63;;;7.40;95.40;;;6.16;100.00;97999.66;4965923;28;100469;-62
2021/01/22 07:39:42;;;;;;;8.23;6.13;;;7.70;94.80;;;6.27;100.00;98007.16;4967227;28;99926;-61
2021/01/22 07:42:11;;;;;;;10.17;6.50;;;7.70;94.00;;;6.33;100.00;97997.59;4967108;28;100937;-63
2021/01/22 07:44:46;;;;;;;9.20;5.97;;;8.00;93.40;;;6.44;100.00;98002.41;4967699;28;100270;-60
2021/01/22 07:47:25;;;;;;;7.43;5.60;;;8.00;92.80;;;6.43;100.00;97996.28;4967239;28;100271;-60
2021/01/22 07:49:53;;;;;;;9.20;6.33;;;8.10;92.20;;;6.58;100.00;98014.03;4967352;28;100025;-59
2021/01/22 07:52:21;;;;;;;8.17;6.40;;;8.30;91.90;;;6.67;100.00;98018.22;4966182;28;101181;-60
2021/01/22 07:54:47;;;;;;;7.60;5.97;;;8.60;91.40;;;6.69;100.00;98005.56;4966313;28;100914;-59
2021/01/22 07:57:16;;;;;;;8.43;5.47;;;8.60;90.50;;;6.73;100.00;98020.94;4966198;28;100111;-60
2021/01/22 07:59:43;;;;;;;8.30;5.97;;;8.80;89.90;;;6.80;100.00;98021.00;4969771;28;100068;-61
2021/01/22 08:02:15;;;;;;;8.10;6.03;;;9.00;88.90;;;6.80;100.00;98023.66;4965580;28;100908;-60
2021/01/22 08:04:42;;;;;;;7.37;5.77;;;9.70;88.20;;;6.73;100.00;98020.13;4966235;28;100519;-61
2021/01/22 08:07:09;;;;;;;7.27;5.83;;;9.10;87.10;;;6.66;100.00;98028.03;4966038;28;99889;-61
2021/01/22 08:09:37;;;;;;;9.97;6.13;;;9.10;86.50;;;6.62;100.00;98037.38;4966436;28;100140;-61
2021/01/22 08:12:09;;;;;;;7.20;5.77;;;9.20;86.40;;;6.65;100.00;98047.66;4966545;28;100773;-60
2021/01/22 08:14:37;;;;;;;7.27;5.70;;;9.10;86.80;;;6.64;100.00;98043.34;4959628;28;101420;-60
2021/01/22 08:17:05;;;;;;;8.00;6.13;;;9.10;86.80;;;6.72;100.00;98042.38;4966105;28;100274;-61
2021/01/22 08:19:33;;;;;;;9.37;5.17;;;9.20;87.50;;;6.93;100.00;98039.72;4966328;27;100050;-61
2021/01/22 08:22:01;;;;;;;6.77;5.37;;;9.00;87.70;;;7.10;100.00;98032.34;4966365;28;100105;-60
2021/01/22 08:24:27;;;;;;;7.23;4.90;;;9.20;87.90;;;7.12;100.00;98033.81;4965479;28;100811;-61
2021/01/22 08:27:00;;;;;;;6.60;5.00;;;9.50;86.50;;;7.18;100.00;98035.69;4965552;28;100073;-60
2021/01/22 08:29:28;;;;;;;7.00;5.47;;;9.60;85.40;;;7.07;100.00;98030.88;4962051;28;100192;-60
2021/01/22 08:31:56;;;;;;;9.10;5.77;;;10.00;83.70;;;7.13;100.00;98026.66;4965463;28;101510;-60
2021/01/22 08:34:23;;;;;;;7.90;5.43;;;9.90;83.10;;;7.14;100.00;98022.97;4964955;28;101393;-60
2021/01/22 08:36:52;;;;;;;6.63;5.03;;;9.80;82.20;;;7.21;100.00;98032.66;4964823;28;99910;-60
2021/01/22 08:39:19;;;;;;;7.87;5.30;;;9.90;82.60;;;7.26;100.00;98023.28;4965588;28;100137;-60
2021/01/22 08:41:45;;;;;;;6.87;5.37;;;9.90;82.80;;;7.27;100.00;98028.41;4965593;28;101395;-61
2021/01/22 08:44:13;;;;;;;6.07;4.83;;;10.00;82.20;;;7.54;100.00;98037.44;4965697;28;101240;-58
2021/01/22 08:46:47;;;;;;;6.07;5.13;;;10.00;82.60;;;7.58;100.00;98028.84;4965201;28;100456;-59
2021/01/22 08:49:14;;;;;;;6.53;4.83;;;10.20;81.80;;;7.85;100.00;98043.16;4965534;28;100313;-60
2021/01/22 08:51:41;;;;;;;5.70;5.00;;;10.40;82.10;;;8.02;100.00;98050.84;4955934;28;100843;-61
2021/01/22 08:54:08;;;;;;;7.97;6.17;;;10.40;81.50;;;7.96;100.00;98046.28;4965525;28;100262;-60
2021/01/22 08:56:35;;;;;;;6.33;4.87;;;10.70;79.30;;;7.91;100.00;98047.69;4965072;28;99953;-59
2021/01/22 08:59:07;;;;;;;6.60;4.53;;;10.70;79.30;;;7.95;100.00;98042.81;4965404;28;99829;-60
2021/01/22 09:01:53;;;;;;;5.00;4.50;;;10.80;79.80;;;7.90;100.00;98042.59;4962097;28;101124;-60
2021/01/22 09:04:29;;;;;;;6.27;4.60;;;10.70;77.80;;;8.00;100.00;98031.56;4963719;28;100675;-60
2021/01/22 09:06:57;;;;;;;4.77;3.90;;;10.60;79.90;;;7.91;100.00;98028.25;4965526;28;100763;-61
2021/01/22 09:09:39;;;;;;;5.07;4.53;;;10.70;79.20;;;7.93;100.00;98024.34;4963513;28;100371;-60
2021/01/22 09:12:18;;;;;;;7.10;4.20;;;10.60;79.30;;;8.00;100.00;98026.25;4961535;28;100908;-60
2021/01/22 09:14:55;;;;;;;9.50;4.23;;;10.70;77.40;;;8.07;100.00;98029.75;4962141;28;101101;-61
2021/01/22 09:17:41;;;;;;;6.17;4.00;;;10.70;79.00;;;8.20;100.00;98029.81;4963968;28;100278;-61
2021/01/22 09:20:16;;;;;;;6.63;4.90;;;10.80;77.40;;;8.27;100.00;98030.69;4962758;28;100045;-62
2021/01/22 09:22:45;;;;;;;7.83;4.50;;;10.80;78.40;;;8.46;100.00;98037.97;4964588;28;100025;-62
2021/01/22 09:25:14;;;;;;;5.20;3.90;;;11.00;79.00;;;8.59;100.00;98031.84;4965053;28;101267;-61
2021/01/22 09:27:42;;;;;;;5.53;3.50;;;11.10;78.50;;;8.55;100.00;98035.94;4965776;28;99969;-62
2021/01/22 09:30:11;;;;;;;5.20;3.53;;;11.20;78.30;;;8.87;100.00;98037.91;4964752;28;100256;-61
2021/01/22 09:32:40;;;;;;;5.60;3.73;;;11.20;78.70;;;8.98;100.00;98036.47;4966246;28;100852;-61
2021/01/22 09:35:08;;;;;;;4.90;2.97;;;11.30;79.60;;;9.34;100.00;98036.94;4964926;28;100418;-61
2021/01/22 09:37:34;;;;;;;4.20;2.87;;;11.40;78.90;;;9.41;100.00;98030.75;4965671;28;99938;-62
2021/01/22 09:40:01;;;;;;;5.13;2.67;;;11.70;79.20;;;9.44;100.00;98025.81;4965666;28;99994;-63
2021/01/22 09:42:27;;;;;;;3.20;2.20;;;11.60;79.00;;;9.52;100.00;98035.50;4964461;28;100528;-62
2021/01/22 09:44:53;;;;;;;5.83;2.60;;;11.80;79.40;;;9.52;100.00;98028.28;4964252;28;101310;-62
2021/01/22 09:47:20;;;;;;;5.30;2.30;;;11.70;79.40;;;9.59;100.00;98033.63;4964530;28;100105;-61
2021/01/22 09:49:47;;;;;;;3.80;2.43;;;11.70;79.30;;;9.64;100.00;98031.19;4965239;28;100137;-61
2021/01/22 09:52:14;;;;;;;4.37;2.37;;;12.70;79.10;;;9.72;100.00;98036.28;4965718;28;100622;-61
2021/01/22 09:54:41;;;;;;;5.53;2.80;;;12.10;78.90;;;9.72;100.00;98028.28;4965438;28;101107;-62
2021/01/22 09:57:07;;;;;;;3.97;2.30;;;12.00;77.60;;;9.83;100.00;98034.84;4965004;28;100091;-62
2021/01/22 09:59:34;;;;;;;3.50;2.30;;;11.90;77.80;;;9.93;100.00;98040.56;4965487;28;100129;-61
2021/01/22 10:02:00;;;;;;;3.50;2.50;;;12.20;77.90;;;9.96;100.00;98035.63;4965607;28;100554;-59
2021/01/22 10:04:27;;;;;;;4.07;2.37;;;12.40;77.00;;;10.17;100.00;98044.41;4965790;28;100462;-61
2021/01/22 10:06:54;;;;;;;5.47;2.50;;;12.30;76.70;;;10.21;100.00;98035.00;4964078;28;100503;-61
2021/01/22 10:09:20;;;;;;;3.20;2.50;;;12.50;76.30;;;10.22;100.00;98023.28;4978863;28;100303;-60
2021/01/22 10:11:47;;;;;;;3.13;2.40;;;12.60;74.50;;;10.26;100.00;98029.84;4963786;28;100590;-61
2021/01/22 10:14:13;;;;;;;6.17;2.63;;;12.90;73.90;;;10.37;100.00;98026.50;4964687;28;100374;-61
2021/01/22 10:16:40;;;;;;;3.07;2.30;;;14.00;74.80;;;10.27;100.00;98034.13;4966672;28;100123;-61
2021/01/22 10:19:06;;;;;;;4.10;2.30;;;13.00;72.80;;;10.30;100.00;98033.72;4968336;28;100048;-60
2021/01/22 10:21:33;;;;;;;4.03;2.23;;;12.90;72.20;;;10.26;100.00;98038.66;4967328;28;101452;-60
2021/01/22 10:24:00;;;;;;;5.20;2.30;;;13.40;72.80;;;10.25;100.00;98037.03;4967644;28;101477;-61
2021/01/22 10:26:26;;;;;;;4.93;2.20;;;12.90;72.90;;;10.31;100.00;98036.19;4968188;28;100194;-60